createdAt,value
2022-08-17T00:00:43.261Z,3.72
2022-08-17T00:03:14.509Z,3.90
2022-08-17T00:05:46.423Z,4.03
2022-08-17T00:08:16.112Z,3.53
2022-08-17T00:10:47.872Z,3.50
2022-08-17T00:13:19.142Z,3.05
2022-08-17T00:15:47.843Z,3.60
2022-08-17T00:19:06.183Z,3.88
2022-08-17T00:21:10.224Z,2.95
2022-08-17T00:23:47.867Z,3.97
2022-08-17T00:26:34.573Z,3.30
2022-08-17T00:29:09.264Z,3.80
2022-08-17T00:31:37.724Z,3.72
2022-08-17T00:34:06.727Z,3.67
2022-08-17T00:36:34.842Z,3.20
2022-08-17T00:39:03.253Z,3.10
2022-08-17T00:41:33.004Z,3.28
2022-08-17T00:44:04.565Z,4.13
2022-08-17T00:46:36.352Z,3.55
2022-08-17T00:49:06.148Z,3.20
2022-08-17T00:51:38.913Z,3.78
2022-08-17T00:54:11.094Z,3.75
2022-08-17T00:56:44.678Z,3.65
2022-08-17T00:59:17.773Z,3.15
2022-08-17T01:01:48.273Z,3.67
2022-08-17T01:04:18.476Z,3.38
2022-08-17T01:06:48.541Z,3.83
2022-08-17T01:09:18.025Z,3.50
2022-08-17T01:11:52.510Z,3.70
2022-08-17T01:14:21.765Z,3.97
2022-08-17T01:16:51.485Z,3.40
2022-08-17T01:19:23.072Z,3.90
2022-08-17T01:21:55.364Z,3.50
2022-08-17T01:24:25.245Z,3.20
2022-08-17T01:26:53.353Z,3.30
2022-08-17T01:29:26.102Z,3.30
2022-08-17T01:31:58.186Z,3.65
2022-08-17T01:34:35.257Z,3.15
2022-08-17T01:37:12.307Z,3.30
2022-08-17T01:39:44.786Z,3.30
2022-08-17T01:42:21.172Z,3.53
2022-08-17T01:44:50.744Z,3.83
2022-08-17T01:47:18.794Z,3.60
2022-08-17T01:49:47.851Z,3.88
2022-08-17T01:52:17.342Z,3.42
2022-08-17T01:54:48.101Z,4.38
2022-08-17T01:57:16.202Z,3.58
2022-08-17T01:59:44.286Z,3.67
2022-08-17T02:02:12.484Z,4.15
2022-08-17T02:05:07.915Z,3.60
2022-08-17T02:07:59.720Z,4.40
2022-08-17T02:10:34.046Z,3.72
2022-08-17T02:13:03.846Z,4.20
2022-08-17T02:15:32.473Z,4.07
2022-08-17T02:18:00.984Z,4.07
2022-08-17T02:20:42.547Z,3.90
2022-08-17T02:23:21.126Z,4.07
2022-08-17T02:25:51.078Z,4.45
2022-08-17T02:28:20.209Z,3.92
2022-08-17T02:31:01.127Z,4.03
2022-08-17T02:33:41.776Z,3.40
2022-08-17T02:36:13.030Z,4.30
2022-08-17T02:38:41.536Z,3.97
2022-08-17T02:41:13.479Z,3.53
2022-08-17T02:43:42.245Z,4.07
2022-08-17T02:46:11.473Z,3.67
2022-08-17T02:48:40.448Z,3.70
2022-08-17T02:51:09.627Z,3.97
2022-08-17T02:53:38.004Z,4.22
2022-08-17T02:56:06.688Z,3.55
2022-08-17T02:58:36.697Z,4.00
2022-08-17T03:01:06.616Z,3.97
2022-08-17T03:03:35.667Z,3.58
2022-08-17T03:06:05.055Z,3.92
2022-08-17T03:08:33.426Z,4.22
2022-08-17T03:11:01.626Z,4.50
2022-08-17T03:13:31.171Z,4.53
2022-08-17T03:16:00.907Z,3.95
2022-08-17T03:18:29.207Z,4.68
2022-08-17T03:20:59.806Z,4.47
2022-08-17T03:23:29.684Z,4.35
2022-08-17T03:26:00.299Z,4.07
2022-08-17T03:28:29.179Z,3.72
2022-08-17T03:30:57.366Z,3.80
2022-08-17T03:33:27.437Z,4.05
2022-08-17T03:35:56.367Z,4.18
2022-08-17T03:38:25.127Z,3.95
2022-08-17T03:40:59.108Z,5.00
2022-08-17T03:43:29.946Z,4.72
2022-08-17T03:46:27.090Z,4.10
2022-08-17T03:49:23.935Z,4.85
2022-08-17T03:52:11.801Z,4.55
2022-08-17T03:54:58.834Z,4.03
2022-08-17T03:59:56.260Z,4.65
2022-08-17T04:02:27.376Z,4.22
2022-08-17T04:04:57.538Z,4.55
2022-08-17T04:07:28.637Z,4.20
2022-08-17T04:09:58.405Z,4.63
2022-08-17T04:12:31.313Z,4.22
2022-08-17T04:15:00.212Z,4.90
2022-08-17T04:17:29.568Z,4.25
2022-08-17T04:19:59.395Z,4.13
2022-08-17T04:22:32.622Z,4.43
2022-08-17T04:25:08.406Z,4.65
2022-08-17T04:27:36.988Z,4.88
2022-08-17T04:30:07.588Z,4.22
2022-08-17T04:33:03.712Z,4.20
2022-08-17T04:35:38.802Z,3.90
2022-08-17T04:38:07.897Z,4.05
2022-08-17T04:40:54.623Z,4.00
2022-08-17T04:43:25.335Z,3.95
2022-08-17T04:45:57.157Z,4.28
2022-08-17T04:48:27.881Z,3.92
2022-08-17T04:51:08.060Z,4.35
2022-08-17T04:53:36.508Z,4.13
2022-08-17T04:56:05.568Z,5.40
2022-08-17T04:58:34.339Z,5.30
2022-08-17T05:01:02.685Z,6.93
2022-08-17T05:03:31.369Z,6.75
2022-08-17T05:05:59.672Z,8.13
2022-08-17T05:08:29.538Z,8.20
2022-08-17T05:10:57.818Z,8.20
2022-08-17T05:13:29.619Z,7.50
2022-08-17T05:15:59.328Z,6.32
2022-08-17T05:18:28.348Z,6.10
2022-08-17T05:20:57.523Z,6.75
2022-08-17T05:23:41.842Z,6.75
2022-08-17T05:26:25.652Z,6.03
2022-08-17T05:28:57.117Z,6.10
2022-08-17T05:31:27.750Z,6.03
2022-08-17T05:33:56.159Z,5.90
2022-08-17T05:36:41.742Z,6.68
2022-08-17T05:39:15.701Z,6.82
2022-08-17T05:41:48.045Z,6.50
2022-08-17T05:44:16.898Z,6.10
2022-08-17T05:46:49.448Z,5.50
2022-08-17T05:49:23.448Z,5.63
2022-08-17T05:52:11.619Z,5.72
2022-08-17T05:54:50.969Z,5.93
2022-08-17T05:57:53.121Z,5.80
2022-08-17T06:00:30.140Z,5.70
2022-08-17T06:03:11.881Z,5.50
2022-08-17T06:05:55.149Z,5.13
2022-08-17T06:08:31.909Z,5.93
2022-08-17T06:11:10.017Z,5.60
2022-08-17T06:14:01.423Z,4.68
2022-08-17T06:16:35.848Z,4.50
2022-08-17T06:19:12.347Z,5.03
2022-08-17T06:24:28.540Z,4.38
2022-08-17T06:27:06.761Z,4.78
2022-08-17T06:29:45.130Z,4.38
2022-08-17T06:32:14.712Z,5.20
2022-08-17T06:34:44.307Z,4.75
2022-08-17T06:37:31.352Z,5.72
2022-08-17T06:40:14.945Z,5.38
2022-08-17T06:43:02.205Z,4.82
2022-08-17T06:45:39.875Z,4.63
2022-08-17T06:48:13.370Z,5.20
2022-08-17T06:50:47.410Z,4.78
2022-08-17T06:53:24.791Z,4.65
2022-08-17T06:55:58.852Z,4.60
2022-08-17T06:58:32.429Z,4.53
2022-08-17T07:01:08.761Z,4.63
2022-08-17T07:06:14.590Z,5.28
2022-08-17T07:08:51.389Z,4.43
2022-08-17T07:11:27.717Z,5.40
2022-08-17T07:14:04.274Z,4.65
2022-08-17T07:16:38.953Z,4.20
2022-08-17T07:19:07.804Z,4.05
2022-08-17T07:21:50.155Z,4.40
2022-08-17T07:24:30.737Z,4.75
2022-08-17T07:27:11.799Z,3.78
2022-08-17T07:29:44.200Z,4.60
2022-08-17T07:32:18.665Z,4.47
2022-08-17T07:35:15.889Z,4.53
2022-08-17T07:40:28.862Z,4.15
2022-08-17T07:43:22.290Z,3.72
2022-08-17T07:46:13.702Z,3.70
2022-08-17T07:48:45.121Z,4.18
2022-08-17T07:51:19.459Z,4.00
2022-08-17T07:53:48.006Z,4.22
2022-08-17T07:56:36.418Z,3.83
2022-08-17T07:59:16.770Z,4.22
2022-08-17T08:01:47.716Z,3.97
2022-08-17T08:07:26.684Z,3.85
2022-08-17T08:10:07.150Z,3.85
2022-08-17T08:12:37.938Z,2.92
2022-08-17T08:15:14.219Z,3.25
2022-08-17T08:20:42.428Z,3.40
2022-08-17T08:23:25.646Z,4.07
2022-08-17T08:26:13.137Z,3.60
2022-08-17T08:28:51.472Z,3.80
2022-08-17T08:34:03.938Z,3.05
2022-08-17T08:37:15.715Z,3.60
2022-08-17T08:39:42.476Z,3.40
2022-08-17T08:42:20.873Z,3.35
2022-08-17T08:45:04.772Z,3.33
2022-08-17T08:48:05.709Z,4.20
2022-08-17T08:50:46.348Z,3.95
2022-08-17T08:53:32.372Z,3.95
2022-08-17T08:56:06.569Z,3.22
2022-08-17T08:58:43.922Z,3.58
2022-08-17T09:01:21.637Z,4.28
2022-08-17T09:04:21.776Z,3.70
2022-08-17T09:07:02.553Z,4.00
2022-08-17T09:09:41.373Z,3.70
2022-08-17T09:12:17.120Z,3.90
2022-08-17T09:15:01.694Z,3.90
2022-08-17T09:17:36.926Z,3.28
2022-08-17T09:20:27.323Z,4.25
2022-08-17T09:23:02.983Z,3.38
2022-08-17T09:25:39.751Z,3.65
2022-08-17T09:28:16.738Z,3.55
2022-08-17T09:30:50.026Z,3.28
2022-08-17T09:33:23.139Z,3.60
2022-08-17T09:35:55.914Z,4.20
2022-08-17T09:38:32.762Z,3.90
2022-08-17T09:41:10.101Z,3.95
2022-08-17T09:43:44.022Z,3.88
2022-08-17T09:46:17.344Z,3.42
2022-08-17T09:48:55.455Z,3.47
2022-08-17T09:51:30.605Z,3.58
2022-08-17T09:54:20.910Z,4.65
2022-08-17T09:57:25.754Z,3.15
2022-08-17T09:59:57.227Z,3.58
2022-08-17T10:03:09.825Z,3.70
2022-08-17T10:05:48.678Z,3.85
2022-08-17T10:08:27.856Z,3.80
2022-08-17T10:11:07.280Z,3.67
2022-08-17T10:13:52.763Z,3.47
2022-08-17T10:16:31.002Z,4.03
2022-08-17T10:19:17.821Z,4.00
2022-08-17T10:22:14.956Z,3.70
2022-08-17T10:25:22.262Z,3.85
2022-08-17T10:27:55.784Z,3.65
2022-08-17T10:30:27.264Z,3.72
2022-08-17T10:32:58.636Z,4.00
2022-08-17T10:35:38.285Z,3.50
2022-08-17T10:38:33.559Z,3.80
2022-08-17T10:41:07.453Z,4.25
2022-08-17T10:44:38.282Z,4.15
2022-08-17T10:46:52.923Z,3.65
2022-08-17T10:49:29.922Z,3.78
2022-08-17T10:52:00.171Z,3.78
2022-08-17T10:54:47.523Z,4.28
2022-08-17T10:57:37.575Z,3.88
2022-08-17T11:00:18.631Z,3.67
2022-08-17T11:02:51.350Z,4.00
2022-08-17T11:05:44.241Z,3.97
2022-08-17T11:08:44.450Z,3.78
2022-08-17T11:11:36.720Z,4.78
2022-08-17T11:14:24.054Z,3.97
2022-08-17T11:17:11.586Z,3.75
2022-08-17T11:20:05.427Z,3.83
2022-08-17T11:23:00.011Z,3.45
2022-08-17T11:25:36.464Z,4.10
2022-08-17T11:28:13.957Z,4.07
2022-08-17T11:30:47.123Z,2.92
2022-08-17T11:33:53.866Z,3.95
2022-08-17T11:36:53.890Z,3.28
2022-08-17T11:39:50.573Z,3.78
2022-08-17T11:42:31.737Z,3.60
2022-08-17T11:45:04.048Z,3.88
2022-08-17T11:48:23.558Z,3.75
2022-08-17T11:51:10.914Z,3.70
2022-08-17T11:57:00.669Z,3.65
2022-08-17T11:59:58.535Z,3.92
2022-08-17T12:02:47.825Z,3.80
2022-08-17T12:05:43.615Z,3.97
2022-08-17T12:08:22.620Z,4.25
2022-08-17T12:11:04.942Z,3.70
2022-08-17T12:13:38.669Z,4.30
2022-08-17T12:16:10.207Z,3.80
2022-08-17T12:18:42.165Z,3.60
2022-08-17T12:21:34.478Z,4.18
2022-08-17T12:24:11.182Z,4.20
2022-08-17T12:26:44.114Z,3.83
2022-08-17T12:29:18.228Z,4.13
2022-08-17T12:32:05.911Z,3.70
2022-08-17T12:34:38.507Z,4.38
2022-08-17T12:37:15.348Z,3.92
2022-08-17T12:39:52.787Z,3.75
2022-08-17T12:42:29.481Z,3.50
2022-08-17T12:44:57.725Z,3.55
2022-08-17T12:47:25.815Z,3.50
2022-08-17T12:50:29.891Z,3.72
2022-08-17T12:53:01.099Z,2.97
2022-08-17T12:55:35.627Z,3.40
2022-08-17T12:58:05.202Z,3.10
2022-08-17T13:00:34.905Z,3.28
2022-08-17T13:03:06.249Z,3.45
2022-08-17T13:05:38.389Z,3.70
2022-08-17T13:08:16.927Z,4.10
2022-08-17T13:10:53.642Z,4.03
2022-08-17T13:13:25.020Z,3.97
2022-08-17T13:15:55.209Z,3.83
2022-08-17T13:18:40.548Z,3.65
2022-08-17T13:21:18.288Z,4.10
2022-08-17T13:23:56.627Z,3.47
2022-08-17T13:26:30.327Z,3.53
2022-08-17T13:29:00.489Z,4.03
2022-08-17T13:31:44.027Z,4.13
2022-08-17T13:34:33.757Z,4.20
2022-08-17T13:37:30.533Z,4.28
2022-08-17T13:40:01.838Z,4.00
2022-08-17T13:42:31.695Z,4.35
2022-08-17T13:45:01.350Z,3.70
2022-08-17T13:47:49.336Z,3.15
2022-08-17T13:50:21.499Z,3.50
2022-08-17T13:52:52.084Z,4.40
2022-08-17T13:55:23.028Z,4.03
2022-08-17T13:58:06.536Z,4.18
2022-08-17T14:00:37.669Z,3.88
2022-08-17T14:03:06.446Z,3.65
2022-08-17T14:05:38.078Z,4.10
2022-08-17T14:08:07.207Z,3.72
2022-08-17T14:10:36.727Z,3.75
2022-08-17T14:13:04.935Z,3.55
2022-08-17T14:15:55.039Z,3.55
2022-08-17T14:18:52.043Z,3.50
2022-08-17T14:21:12.183Z,3.55
2022-08-17T14:23:41.312Z,3.47
2022-08-17T14:26:17.284Z,3.85
2022-08-17T14:28:54.386Z,4.20
2022-08-17T14:31:22.981Z,3.83
2022-08-17T14:33:52.976Z,3.95
2022-08-17T14:36:21.332Z,3.92
2022-08-17T14:38:49.372Z,3.42
2022-08-17T14:41:22.071Z,3.53
2022-08-17T14:43:51.034Z,3.88
2022-08-17T14:46:19.345Z,3.58
2022-08-17T14:48:47.682Z,3.80
2022-08-17T14:51:17.442Z,3.63
2022-08-17T14:53:46.254Z,3.47
2022-08-17T14:56:14.563Z,3.70
2022-08-17T14:58:42.775Z,4.25
2022-08-17T15:01:12.010Z,3.67
2022-08-17T15:03:41.273Z,3.75
2022-08-17T15:06:14.913Z,3.58
2022-08-17T15:08:46.434Z,4.32
2022-08-17T15:11:15.005Z,3.60
2022-08-17T15:13:52.797Z,3.95
2022-08-17T15:16:21.736Z,3.88
2022-08-17T15:18:50.414Z,3.60
2022-08-17T15:21:19.011Z,3.47
2022-08-17T15:23:48.541Z,3.60
2022-08-17T15:26:18.521Z,3.88
2022-08-17T15:28:54.269Z,3.70
2022-08-17T15:31:32.139Z,3.67
2022-08-17T15:34:00.855Z,3.42
2022-08-17T15:36:28.811Z,3.80
2022-08-17T15:38:59.191Z,3.53
2022-08-17T15:41:28.479Z,3.63
2022-08-17T15:43:56.733Z,3.78
2022-08-17T15:46:26.160Z,3.55
2022-08-17T15:48:56.767Z,3.85
2022-08-17T15:51:27.322Z,3.47
2022-08-17T15:53:59.639Z,4.43
2022-08-17T15:56:32.990Z,3.20
2022-08-17T15:59:01.401Z,3.60
2022-08-17T16:02:15.416Z,3.00
2022-08-17T16:04:30.184Z,4.05
2022-08-17T16:06:59.503Z,3.28
2022-08-17T16:09:28.986Z,3.22
2022-08-17T16:11:57.012Z,4.13
2022-08-17T16:14:32.391Z,3.17
2022-08-17T16:17:03.871Z,3.13
2022-08-17T16:19:33.405Z,2.97
2022-08-17T16:22:01.505Z,3.25
2022-08-17T16:24:32.162Z,3.33
2022-08-17T16:27:00.470Z,3.25
2022-08-17T16:29:28.883Z,3.20
2022-08-17T16:31:57.769Z,3.40
2022-08-17T16:34:25.752Z,3.80
2022-08-17T16:36:56.498Z,2.90
2022-08-17T16:39:27.560Z,3.28
2022-08-17T16:41:57.751Z,3.65
2022-08-17T16:44:31.932Z,3.03
2022-08-17T16:47:01.574Z,3.17
2022-08-17T16:49:37.308Z,2.92
2022-08-17T16:52:10.566Z,3.38
2022-08-17T16:54:44.104Z,3.53
2022-08-17T16:57:14.863Z,2.97
2022-08-17T16:59:47.769Z,2.67
2022-08-17T17:02:17.405Z,3.03
2022-08-17T17:04:51.168Z,3.85
2022-08-17T17:07:51.195Z,3.53
2022-08-17T17:10:22.872Z,3.42
2022-08-17T17:13:03.165Z,3.15
2022-08-17T17:15:59.008Z,3.10
2022-08-17T17:18:38.523Z,3.22
2022-08-17T17:21:10.190Z,3.28
2022-08-17T17:23:48.552Z,2.75
2022-08-17T17:26:39.555Z,3.40
2022-08-17T17:29:24.988Z,3.08
2022-08-17T17:32:03.232Z,3.38
2022-08-17T17:34:37.249Z,3.50
2022-08-17T17:37:12.891Z,3.78
2022-08-17T17:39:47.886Z,3.65
2022-08-17T17:42:20.466Z,3.47
2022-08-17T17:44:56.801Z,3.65
2022-08-17T17:49:52.605Z,3.65
2022-08-17T17:52:29.278Z,3.67
2022-08-17T17:55:06.561Z,3.90
2022-08-17T17:57:56.045Z,3.97
2022-08-17T18:00:29.893Z,3.45
2022-08-17T18:03:11.406Z,3.78
2022-08-17T18:05:52.200Z,3.90
2022-08-17T18:08:34.988Z,3.95
2022-08-17T18:11:24.258Z,3.75
2022-08-17T18:14:05.412Z,3.50
2022-08-17T18:16:37.922Z,3.53
2022-08-17T18:19:06.829Z,3.50
2022-08-17T18:21:44.710Z,3.30
2022-08-17T18:24:14.293Z,3.80
2022-08-17T18:26:57.481Z,3.47
2022-08-17T18:29:32.052Z,3.95
2022-08-17T18:32:27.473Z,3.28
2022-08-17T18:34:57.775Z,3.92
2022-08-17T18:37:38.715Z,3.05
2022-08-17T18:40:28.898Z,3.75
2022-08-17T18:43:05.235Z,3.17
2022-08-17T18:45:38.382Z,3.80
2022-08-17T18:48:28.611Z,3.92
2022-08-17T18:50:59.867Z,3.28
2022-08-17T18:53:34.819Z,3.35
2022-08-17T18:56:29.918Z,3.40
2022-08-17T18:59:06.068Z,3.45
2022-08-17T19:01:47.589Z,3.45
2022-08-17T19:04:34.615Z,3.50
2022-08-17T19:07:06.775Z,3.38
2022-08-17T19:09:38.689Z,3.67
2022-08-17T19:12:10.559Z,3.85
2022-08-17T19:14:38.945Z,3.83
2022-08-17T19:17:12.185Z,3.70
2022-08-17T19:19:49.728Z,3.58
2022-08-17T19:22:28.707Z,3.40
2022-08-17T19:25:08.789Z,3.72
2022-08-17T19:27:57.363Z,3.45
2022-08-17T19:30:26.310Z,3.63
2022-08-17T19:32:58.551Z,4.18
2022-08-17T19:35:36.247Z,3.50
2022-08-17T19:38:13.210Z,3.70
2022-08-17T19:40:53.619Z,3.90
2022-08-17T19:43:30.976Z,3.83
2022-08-17T19:46:06.226Z,3.17
2022-08-17T19:48:45.712Z,3.55
2022-08-17T19:51:24.683Z,3.45
2022-08-17T19:54:07.086Z,3.97
2022-08-17T19:56:44.969Z,3.42
2022-08-17T19:59:18.566Z,4.45
2022-08-17T20:01:50.553Z,3.65
2022-08-17T20:04:36.044Z,3.35
2022-08-17T20:07:10.045Z,3.38
2022-08-17T20:09:40.398Z,3.58
2022-08-17T20:12:11.731Z,4.13
2022-08-17T20:14:53.398Z,3.88
2022-08-17T20:17:25.435Z,3.45
2022-08-17T20:20:04.823Z,3.20
2022-08-17T20:22:51.996Z,3.67
2022-08-17T20:25:30.088Z,2.97
2022-08-17T20:28:06.383Z,3.50
2022-08-17T20:30:38.640Z,3.35
2022-08-17T20:33:08.724Z,3.28
2022-08-17T20:36:00.127Z,3.70
2022-08-17T20:38:41.259Z,3.80
2022-08-17T20:41:14.721Z,4.00
2022-08-17T20:43:49.268Z,3.50
2022-08-17T20:46:28.842Z,3.67
2022-08-17T20:49:14.657Z,3.42
2022-08-17T20:52:01.509Z,4.07
2022-08-17T20:54:44.566Z,3.83
2022-08-17T20:57:43.585Z,3.60
2022-08-17T21:00:16.718Z,3.35
2022-08-17T21:02:47.068Z,3.50
2022-08-17T21:05:34.248Z,3.90
2022-08-17T21:08:14.207Z,3.28
2022-08-17T21:10:45.695Z,3.75
2022-08-17T21:13:38.207Z,5.80
2022-08-17T21:16:25.975Z,13.93
2022-08-17T21:19:04.298Z,9.00
2022-08-17T21:21:40.427Z,7.72
2022-08-17T21:24:20.407Z,4.75
2022-08-17T21:27:01.035Z,4.43
2022-08-17T21:29:36.339Z,4.38
2022-08-17T21:32:24.550Z,3.60
2022-08-17T21:35:23.327Z,8.73
2022-08-17T21:37:55.677Z,5.95
2022-08-17T21:40:29.236Z,6.13
2022-08-17T21:43:08.137Z,4.88
2022-08-17T21:45:38.216Z,4.60
2022-08-17T21:48:19.856Z,4.60
2022-08-17T21:50:58.667Z,4.00
2022-08-17T21:53:34.306Z,4.97
2022-08-17T21:56:02.446Z,3.90
2022-08-17T21:58:34.727Z,3.70
2022-08-17T22:01:22.987Z,3.88
2022-08-17T22:04:02.377Z,4.20
2022-08-17T22:06:35.938Z,4.10
2022-08-17T22:09:12.669Z,3.85
2022-08-17T22:11:53.246Z,3.72
2022-08-17T22:14:24.568Z,4.15
2022-08-17T22:17:16.296Z,4.10
2022-08-17T22:19:47.258Z,3.33
2022-08-17T22:22:28.608Z,4.07
2022-08-17T22:24:59.399Z,4.22
2022-08-17T22:27:49.863Z,3.83
2022-08-17T22:30:28.080Z,4.10
2022-08-17T22:32:56.658Z,4.13
2022-08-17T22:35:37.139Z,3.83
2022-08-17T22:38:31.275Z,3.40
2022-08-17T22:41:41.404Z,3.97
2022-08-17T22:44:17.830Z,4.00
2022-08-17T22:46:59.262Z,4.00
2022-08-17T22:49:30.018Z,3.50
2022-08-17T22:52:04.748Z,4.00
2022-08-17T22:54:51.558Z,4.30
2022-08-17T23:00:32.177Z,3.97
2022-08-17T23:03:15.008Z,3.70
2022-08-17T23:05:45.271Z,3.88
2022-08-17T23:08:14.178Z,3.97
2022-08-17T23:10:42.978Z,4.35
2022-08-17T23:13:12.210Z,3.88
2022-08-17T23:15:41.023Z,3.88
2022-08-17T23:18:10.649Z,4.50
2022-08-17T23:20:40.732Z,3.78
2022-08-17T23:23:10.404Z,3.92
2022-08-17T23:25:38.524Z,4.60
2022-08-17T23:28:07.382Z,4.30
2022-08-17T23:30:40.064Z,4.20
2022-08-17T23:33:16.834Z,3.80
2022-08-17T23:35:44.832Z,3.83
2022-08-17T23:38:14.044Z,4.00
2022-08-17T23:40:42.213Z,4.55
2022-08-17T23:43:23.798Z,3.90
2022-08-17T23:45:54.351Z,4.10
2022-08-17T23:48:28.619Z,4.07
2022-08-17T23:51:09.311Z,4.00
2022-08-17T23:53:42.121Z,4.10
2022-08-17T23:56:11.616Z,4.43
2022-08-17T23:58:42.511Z,4.60
